Wilson Heron — 9HJW9 — position and weather

sailwx.info

Track history (hours):
 
Tides and Currents Weather Stations Pressure Air Temp Water Temp Dewpoint Dewpoint Depression Visibility Wind Speed Wind Dir Waves Ship Positions

Wilson Heron

Last reported at 2016-Aug-26 07:30 UTC. Time now 2016-Aug-29 08:59 UTC.
Position N 66°55' E 013°30'.

Length 91 m; draft 6 m.

Type: Cargo ship. MMSI: 249075000.

Date/timePositionNaut miles runAvg speedWind from/ knotsBaromVisibWave heightAir tempDewpointWater temp
2016-Aug-26 07:30N 66°55' E 013°30'8 8.9
2016-Aug-26 06:33N 67°01' E 013°45'12 5.9
2016-Aug-26 04:31N 67°10' E 014°06'0 0.0
2016-Aug-26 03:31N 67°10' E 014°06'0 0.0
2016-Aug-26 02:25N 67°10' E 014°06'0 0.0
2016-Aug-26 01:28N 67°10' E 014°06'0 0.0
2016-Aug-26 00:28N 67°10' E 014°06'0 0.0
2016-Aug-25 23:31N 67°10' E 014°06'0 0.0
2016-Aug-25 22:31N 67°10' E 014°06'0 0.0
2016-Aug-25 21:25N 67°10' E 014°06'0 0.0
2016-Aug-25 20:31N 67°10' E 014°06'0 0.1
2016-Aug-25 19:31N 67°10' E 014°06'0 0.0
2016-Aug-25 18:31N 67°10' E 014°06'0 0.0
2016-Aug-25 17:28N 67°09' E 014°06'0 0.0
2016-Aug-25 16:31N 67°10' E 014°06'0 0.0
2016-Aug-25 15:31N 67°10' E 014°06'0 0.0
2016-Aug-25 14:31N 67°10' E 014°06'0 0.0
2016-Aug-25 13:28N 67°10' E 014°06'0 0.1
2016-Aug-25 12:31N 67°10' E 014°06'0 0.0
2016-Aug-25 11:31N 67°10' E 014°06'7 7.8
2016-Aug-25 10:33N 67°13' E 013°49'  
2016-Aug-18 08:04N 69°28' E 015°58'18610.4
2016-Aug-17 14:06N 66°49' E 011°36'611.0
2016-Aug-17 13:32N 66°43' E 011°37'1111.2
2016-Aug-17 12:34N 66°32' E 011°39'1110.8
2016-Aug-17 11:34N 66°22' E 011°49'10 9.8
2016-Aug-17 10:33N 66°17' E 012°09'1110.9
2016-Aug-17 09:33N 66°14' E 012°36'  
Track history (hours):
 
Tides and Currents Weather Stations Pressure Air Temp Water Temp Dewpoint Dewpoint Depression Visibility Wind Speed Wind Dir Waves Ship Positions

Wilson Heron

Last reported at 2016-Aug-26 07:30 UTC. Time now 2016-Aug-29 08:59 UTC.
Position N 66°55' E 013°30'.

Length 91 m; draft 6 m.

Type: Cargo ship. MMSI: 249075000.

Date/timePositionNaut miles runAvg speedWind from/ knotsBaromVisibWave heightAir tempDewpointWater temp
2016-Aug-26 07:30N 66°55' E 013°30'8 8.9
2016-Aug-26 06:33N 67°01' E 013°45'12 5.9
2016-Aug-26 04:31N 67°10' E 014°06'0 0.0
2016-Aug-26 03:31N 67°10' E 014°06'0 0.0
2016-Aug-26 02:25N 67°10' E 014°06'0 0.0
2016-Aug-26 01:28N 67°10' E 014°06'0 0.0
2016-Aug-26 00:28N 67°10' E 014°06'0 0.0
2016-Aug-25 23:31N 67°10' E 014°06'0 0.0
2016-Aug-25 22:31N 67°10' E 014°06'0 0.0
2016-Aug-25 21:25N 67°10' E 014°06'0 0.0
2016-Aug-25 20:31N 67°10' E 014°06'0 0.1
2016-Aug-25 19:31N 67°10' E 014°06'0 0.0
2016-Aug-25 18:31N 67°10' E 014°06'0 0.0
2016-Aug-25 17:28N 67°09' E 014°06'0 0.0
2016-Aug-25 16:31N 67°10' E 014°06'0 0.0
2016-Aug-25 15:31N 67°10' E 014°06'0 0.0
2016-Aug-25 14:31N 67°10' E 014°06'0 0.0
2016-Aug-25 13:28N 67°10' E 014°06'0 0.1
2016-Aug-25 12:31N 67°10' E 014°06'0 0.0
2016-Aug-25 11:31N 67°10' E 014°06'7 7.8
2016-Aug-25 10:33N 67°13' E 013°49'  
2016-Aug-18 08:04N 69°28' E 015°58'18610.4
2016-Aug-17 14:06N 66°49' E 011°36'611.0
2016-Aug-17 13:32N 66°43' E 011°37'1111.2
2016-Aug-17 12:34N 66°32' E 011°39'1110.8
2016-Aug-17 11:34N 66°22' E 011°49'10 9.8
2016-Aug-17 10:33N 66°17' E 012°09'1110.9
2016-Aug-17 09:33N 66°14' E 012°36'  

Dump ship's entire track history